Ana Sayfa
METAR-TAF:

METAR-TAF

Havaalanları :

Yaş, Romanya

Enlem: 47-10N, Boylam: 027-38E, yükseklik: 102 m

Güncel hava durumu gözlemi

Rapor saat 07:00 UTC de 36 dakika önce yapıldı.
Rüzgar batı/kuzeybatıdan 7 kt
Sıcaklık 0°C
Nem 80%
Basınç 1021 hPa
Görüş mesafesi 10 km veya daha fazla
1300 ft yükseklikte parçalı çok bulutlu
hafif kar

METAR: LRIA 140700Z 30007KT 9999 -SN BKN013 M00/M03 Q1021 R14/29//95

Saat: 09:36 (07:36 UTC)

Tahmin

Rapor saat 05:00 UTC de 2 saat ve 36 dakika önce yapıldı.
Ayın 14'si saat 06 UTC'den ayın 14'si saat 15 UTC'ye kadar geçerli Tahmin
Rüzgar batı/kuzeybatıdan 10 kt
Görüş mesafesi 10 km veya daha fazla
3000 ft yükseklikte parçalı çok bulutlu
Geçici
ayın 14'si saat 06 UTC'den ayın 14'si saat 09 UTC'ye kadar
Görüş mesafesi: 5000 m
1000 ft yükseklikte parçalı çok bulutlu
3000 ft yükseklikte parçalı çok bulutlu
hafif kar

TAF: LRIA 140500Z 1406/1415 30010KT 9999 BKN030 TEMPO 1406/1409 5000 -SN BKN010 BKN030

4.000'den fazla havaalanı için hava durumu gözlemleri ve tahminleri (METAR ve TAF raporları).

Kullanılabilir istasyonlar harita üzerinde sarı ve kırmızı noktalarla gösterilir.

İstasyonun adını görmek için fareyi noktanın üzerinde gezdirin.

Sonrasında hava gözlem ve tahminlerini görmek için tıklayın.

Haritayı değiştirmek için: yaklaştırmak için siyah artı işaretli yeşil düğmeye ve uzaklaştırmak için de eksi işaretli düğmeye hızla tıklayın; bitişik haritalar için yeşil okları kullanın.


METAR-TAF: